Cherneski — AEGG — position and weather

sailwx.info

Track history (hours):
 
Tides and Currents Weather Stations Pressure Air Temp Water Temp Dewpoint Dewpoint Depression Visibility Wind Speed Wind Dir Waves Ship Positions

Cherneski

Last reported at 2018-Aug-14 18:17 UTC. Time now 2018-Aug-14 23:45 UTC.
Position N 39°15' W 075°00'.

Length 16 m.

Type: Dredging. MMSI: 366999302.

Date/timePositionNaut miles runAvg speedWind from/ knotsBaromVisibWave heightAir tempDewpointWater temp
2018-Aug-14 18:17N 39°15' W 075°00'3 5.5
2018-Aug-14 17:50N 39°13' W 075°02'718.1
2018-Aug-14 17:27N 39°07' W 075°06'5 1.8
2018-Aug-14 14:52N 39°06' W 075°11'2 4.3
2018-Aug-14 14:24N 39°06' W 075°09'716.0
2018-Aug-14 13:58N 39°11' W 075°02'  
2018-Aug-10 17:50N 39°13' W 075°02'2 6.2
2018-Aug-10 17:27N 39°10' W 075°03'919.8
2018-Aug-10 17:01N 39°07' W 075°13'1224.3
2018-Aug-10 16:31N 39°17' W 075°22'1122.6
2018-Aug-10 16:01N 39°26' W 075°32'816.2
2018-Aug-10 15:30N 39°33' W 075°36'5 8.4
2018-Aug-10 14:58N 39°33' W 075°42'0 0.0
2018-Aug-10 14:28N 39°33' W 075°42'0 0.0
2018-Aug-10 13:58N 39°33' W 075°42'0 0.0
2018-Aug-10 13:25N 39°33' W 075°42'0 0.0
2018-Aug-10 12:58N 39°33' W 075°42'0 0.0
2018-Aug-10 12:28N 39°33' W 075°42'0 0.0
2018-Aug-10 11:58N 39°33' W 075°42'0 0.0
2018-Aug-10 11:28N 39°33' W 075°42'0 0.0
2018-Aug-10 11:00N 39°33' W 075°42'0 0.0
2018-Aug-10 10:28N 39°33' W 075°42'0 0.0
2018-Aug-10 09:58N 39°33' W 075°42'0 0.0
2018-Aug-10 09:30N 39°33' W 075°42'0 0.0
2018-Aug-10 08:57N 39°33' W 075°42'0 0.0
2018-Aug-10 08:27N 39°33' W 075°42'0 0.0
2018-Aug-10 08:00N 39°33' W 075°42'0 0.0
2018-Aug-10 07:28N 39°33' W 075°42'0 0.0
2018-Aug-10 07:00N 39°33' W 075°42'0 0.0
2018-Aug-10 06:25N 39°33' W 075°42'0 0.0
2018-Aug-10 05:58N 39°33' W 075°42'0 0.0
2018-Aug-10 05:28N 39°33' W 075°42'0 0.0
2018-Aug-10 04:57N 39°33' W 075°42'0 0.0
2018-Aug-10 04:27N 39°33' W 075°42'0 0.0
2018-Aug-10 03:58N 39°33' W 075°42'0 0.0
2018-Aug-10 03:28N 39°33' W 075°42'0 0.0
2018-Aug-10 02:55N 39°33' W 075°42'0 0.0
2018-Aug-10 02:28N 39°33' W 075°42'0 0.0
2018-Aug-10 01:58N 39°33' W 075°42'0 0.0
2018-Aug-10 01:28N 39°33' W 075°42'0 0.0
2018-Aug-10 00:58N 39°33' W 075°42'0 0.0
2018-Aug-10 00:28N 39°33' W 075°42'0 0.0
2018-Aug-09 23:58N 39°33' W 075°42'0 0.0
2018-Aug-09 23:28N 39°33' W 075°42'0 0.0
2018-Aug-09 22:58N 39°33' W 075°42'0 0.0
2018-Aug-09 22:28N 39°33' W 075°42'0 0.0
2018-Aug-09 21:58N 39°33' W 075°42'0 0.0
2018-Aug-09 21:28N 39°33' W 075°42'0 0.0
2018-Aug-09 20:55N 39°33' W 075°42'0 0.0
2018-Aug-09 20:28N 39°33' W 075°42'0 0.0
2018-Aug-09 19:58N 39°33' W 075°42'0 0.0
2018-Aug-09 19:28N 39°33' W 075°42'0 0.0
2018-Aug-09 18:55N 39°33' W 075°42'0 0.0
2018-Aug-09 18:28N 39°33' W 075°42'0 0.0
2018-Aug-09 17:58N 39°33' W 075°42'0 0.2
2018-Aug-09 17:29N 39°33' W 075°42'0 0.0
2018-Aug-09 17:00N 39°33' W 075°42'4 7.4
2018-Aug-09 16:31N 39°33' W 075°37'815.9
2018-Aug-09 16:00N 39°40' W 075°32'0 0.1
2018-Aug-09 15:30N 39°40' W 075°32'0 0.4
2018-Aug-09 15:00N 39°40' W 075°32'0 0.3
2018-Aug-09 14:30N 39°40' W 075°32'0 1.0
2018-Aug-09 14:00N 39°40' W 075°32'0 0.2
2018-Aug-09 13:30N 39°39' W 075°33'0 0.9
2018-Aug-09 13:00N 39°40' W 075°32'611.9
2018-Aug-09 12:30N 39°34' W 075°33'714.2
2018-Aug-09 12:00N 39°33' W 075°42'0 0.0
2018-Aug-09 11:29N 39°33' W 075°42'0 0.0
2018-Aug-09 10:59N 39°33' W 075°42'0 0.0
2018-Aug-09 10:29N 39°33' W 075°42'0 0.0
2018-Aug-09 09:59N 39°33' W 075°42'0 0.0
2018-Aug-09 09:29N 39°33' W 075°42'0 0.0
2018-Aug-09 08:59N 39°33' W 075°42'0 0.0
2018-Aug-09 08:29N 39°33' W 075°42'0 0.0
2018-Aug-09 07:59N 39°33' W 075°42'0 0.0
2018-Aug-09 07:29N 39°33' W 075°42'0 0.0
2018-Aug-09 06:59N 39°33' W 075°42'0 0.0
2018-Aug-09 06:23N 39°33' W 075°42'0 0.0
2018-Aug-09 05:56N 39°33' W 075°42'0 0.0
2018-Aug-09 05:29N 39°33' W 075°42'0 0.0
2018-Aug-09 04:59N 39°33' W 075°42'0 0.0
2018-Aug-09 04:29N 39°33' W 075°42'0 0.0
2018-Aug-09 03:59N 39°33' W 075°42'0 0.0
2018-Aug-09 03:29N 39°33' W 075°42'0 0.0
2018-Aug-09 02:59N 39°33' W 075°42'0 0.0
2018-Aug-09 02:26N 39°33' W 075°42'0 0.0
2018-Aug-09 01:59N 39°33' W 075°42'0 0.0
2018-Aug-09 01:29N 39°33' W 075°42'0 0.0
2018-Aug-09 00:59N 39°33' W 075°42'0 0.0
2018-Aug-09 00:29N 39°33' W 075°42'0 0.0
2018-Aug-08 23:59N 39°33' W 075°42'0 0.0
2018-Aug-08 23:29N 39°33' W 075°42'0 0.0
2018-Aug-08 22:59N 39°33' W 075°42'0 0.0
2018-Aug-08 22:29N 39°33' W 075°42'0 0.0
2018-Aug-08 21:59N 39°33' W 075°42'0 0.0
2018-Aug-08 21:29N 39°33' W 075°42'0 0.0
2018-Aug-08 20:59N 39°33' W 075°42'0 0.0
2018-Aug-08 20:29N 39°33' W 075°42'0 0.0
2018-Aug-08 19:59N 39°33' W 075°42'0 0.0
2018-Aug-08 19:29N 39°33' W 075°42'0 0.0
2018-Aug-08 18:59N 39°33' W 075°42'0 0.0
2018-Aug-08 18:29N 39°33' W 075°42'0 0.0
2018-Aug-08 17:59N 39°33' W 075°42'0 0.0
2018-Aug-08 17:29N 39°33' W 075°42'0 0.0
2018-Aug-08 16:59N 39°33' W 075°42'0 0.0
2018-Aug-08 16:29N 39°33' W 075°42'4 9.3
2018-Aug-08 16:01N 39°33' W 075°37'612.5
2018-Aug-08 15:30N 39°39' W 075°33'0 0.7
2018-Aug-08 15:00N 39°39' W 075°33'1 1.4
2018-Aug-08 14:30N 39°39' W 075°33'1 1.2
2018-Aug-08 14:00N 39°39' W 075°33'0 0.9
2018-Aug-08 13:30N 39°39' W 075°33'713.2
2018-Aug-08 13:00N 39°33' W 075°38'3 5.7
2018-Aug-08 12:26N 39°33' W 075°42'0 0.2
2018-Aug-08 11:58N 39°33' W 075°42'0 0.0
2018-Aug-08 11:28N 39°33' W 075°42'0 0.0
2018-Aug-08 10:58N 39°33' W 075°42'0 0.0
2018-Aug-08 10:28N 39°33' W 075°42'0 0.0
2018-Aug-08 09:55N 39°33' W 075°42'0 0.0
2018-Aug-08 09:28N 39°33' W 075°42'0 0.0
2018-Aug-08 08:58N 39°33' W 075°42'0 0.0
2018-Aug-08 08:28N 39°33' W 075°42'0 0.0
2018-Aug-08 07:58N 39°33' W 075°42'0 0.0
2018-Aug-08 07:28N 39°33' W 075°42'0 0.0
2018-Aug-08 06:55N 39°33' W 075°42'0 0.0
2018-Aug-08 06:28N 39°33' W 075°42'0 0.0
2018-Aug-08 05:58N 39°33' W 075°42'0 0.0
2018-Aug-08 05:25N 39°33' W 075°42'0 0.0
2018-Aug-08 04:58N 39°33' W 075°42'0 0.0
2018-Aug-08 04:25N 39°33' W 075°42'0 0.0
2018-Aug-08 03:58N 39°33' W 075°42'0 0.0
2018-Aug-08 03:28N 39°33' W 075°42'0 0.0
2018-Aug-08 02:58N 39°33' W 075°42'0 0.0
2018-Aug-08 02:28N 39°33' W 075°42'0 0.0
2018-Aug-08 01:58N 39°33' W 075°42'0 0.0
2018-Aug-08 01:25N 39°33' W 075°42'0 0.0
2018-Aug-08 00:58N 39°33' W 075°42'0 0.0
2018-Aug-08 00:28N 39°33' W 075°42'0 0.0
2018-Aug-07 19:28N 39°33' W 075°42'0 0.0
2018-Aug-07 18:58N 39°33' W 075°42'0 0.0
2018-Aug-07 18:28N 39°33' W 075°42'0 0.0
2018-Aug-07 17:58N 39°33' W 075°42'0 0.0
2018-Aug-07 17:25N 39°33' W 075°42'3 7.6
2018-Aug-07 17:00N 39°33' W 075°38'918.2
2018-Aug-07 16:31N 39°41' W 075°32'1122.8
2018-Aug-07 16:00N 39°50' W 075°22'1 2.3
2018-Aug-07 15:30N 39°51' W 075°21'0 0.0
2018-Aug-07 15:00N 39°51' W 075°21'0 0.2
2018-Aug-07 14:30N 39°51' W 075°21'510.4
2018-Aug-07 14:00N 39°48' W 075°26'1019.5
2018-Aug-07 13:30N 39°39' W 075°33'714.4
2018-Aug-07 13:01N 39°33' W 075°38'3 6.2
2018-Aug-07 12:31N 39°33' W 075°42'0 0.0
2018-Aug-07 12:00N 39°33' W 075°42'0 0.0
2018-Aug-07 11:14N 39°33' W 075°42'0 0.0
2018-Aug-07 10:54N 39°33' W 075°42'0 0.0
2018-Aug-07 10:28N 39°33' W 075°42'0 0.0
2018-Aug-07 10:00N 39°33' W 075°42'0 0.0
2018-Aug-07 09:23N 39°33' W 075°42'0 0.0
2018-Aug-07 08:55N 39°33' W 075°42'0 0.0
2018-Aug-07 08:27N 39°33' W 075°42'0 0.0
2018-Aug-07 08:00N 39°33' W 075°42'0 0.0
2018-Aug-07 07:30N 39°33' W 075°42'0 0.0
2018-Aug-07 07:01N 39°33' W 075°42'0 0.0
2018-Aug-07 06:30N 39°33' W 075°42'0 0.0
2018-Aug-07 06:00N 39°33' W 075°42'0 0.0
2018-Aug-07 05:30N 39°33' W 075°42'0 0.0
2018-Aug-07 05:00N 39°33' W 075°42'0 0.0
2018-Aug-07 04:30N 39°33' W 075°42'0 0.0
2018-Aug-07 04:00N 39°33' W 075°42'0 0.0
2018-Aug-07 03:30N 39°33' W 075°42'0 0.0
2018-Aug-07 03:00N 39°33' W 075°42'0 0.0
2018-Aug-07 02:30N 39°33' W 075°42'0 0.0
2018-Aug-07 02:00N 39°33' W 075°42'0 0.0
2018-Aug-07 01:30N 39°33' W 075°42'0 0.0
2018-Aug-07 01:01N 39°33' W 075°42'0 0.0
2018-Aug-07 00:30N 39°33' W 075°42'0 0.0
2018-Aug-07 00:00N 39°33' W 075°42'0 0.0
2018-Aug-06 23:29N 39°33' W 075°42'0 0.0
2018-Aug-06 22:59N 39°33' W 075°42'0 0.0
2018-Aug-06 22:30N 39°33' W 075°42'0 0.0
2018-Aug-06 22:00N 39°33' W 075°42'0 0.0
2018-Aug-06 21:30N 39°33' W 075°42'0 0.0
2018-Aug-06 21:00N 39°33' W 075°42'0 0.0
2018-Aug-06 20:30N 39°33' W 075°42'0 0.0
2018-Aug-06 20:00N 39°33' W 075°42'0 0.0
2018-Aug-06 19:30N 39°33' W 075°42'0 0.0
2018-Aug-06 19:01N 39°33' W 075°42'0 0.0
2018-Aug-06 18:31N 39°33' W 075°42'0 0.0
2018-Aug-06 18:00N 39°33' W 075°42'0 0.0
2018-Aug-06 17:31N 39°33' W 075°42'0 0.0
2018-Aug-06 17:00N 39°33' W 075°42'0 0.0
2018-Aug-06 16:30N 39°33' W 075°42'0 0.7
2018-Aug-06 16:00N 39°33' W 075°43'714.4
2018-Aug-06 15:30N 39°34' W 075°34'0 0.3
2018-Aug-06 15:00N 39°34' W 075°34'612.0
2018-Aug-06 14:31N 39°40' W 075°32'1121.6
2018-Aug-06 14:00N 39°49' W 075°24'611.4
2018-Aug-06 13:30N 39°51' W 075°17'4 7.9
2018-Aug-06 13:00N 39°53' W 075°13'0 0.0
2018-Aug-06 12:29N 39°53' W 075°13'0 0.0
2018-Aug-06 11:59N 39°53' W 075°13'0 0.0
2018-Aug-06 11:29N 39°53' W 075°13'0 0.0
2018-Aug-06 10:59N 39°53' W 075°13'0 0.0
2018-Aug-06 10:29N 39°53' W 075°13'0 0.0
2018-Aug-06 09:59N 39°53' W 075°13'0 0.0
2018-Aug-06 09:29N 39°53' W 075°13'0 0.0
2018-Aug-06 08:59N 39°53' W 075°13'0 0.0
2018-Aug-06 08:29N 39°53' W 075°13'0 0.0
2018-Aug-06 07:59N 39°53' W 075°13'0 0.0
2018-Aug-06 07:29N 39°53' W 075°13'0 0.0
2018-Aug-06 06:59N 39°53' W 075°13'0 0.0
2018-Aug-06 06:29N 39°53' W 075°13'0 0.0
2018-Aug-06 05:59N 39°53' W 075°13'0 0.0
2018-Aug-06 05:29N 39°53' W 075°13'0 0.0
2018-Aug-06 04:59N 39°53' W 075°13'0 0.0
2018-Aug-06 04:29N 39°53' W 075°13'0 0.0
2018-Aug-06 03:59N 39°53' W 075°13'0 0.0
2018-Aug-06 03:29N 39°53' W 075°13'0 0.0
2018-Aug-06 02:56N 39°53' W 075°13'0 0.0
2018-Aug-06 02:26N 39°53' W 075°13'0 0.0
2018-Aug-06 01:59N 39°53' W 075°13'0 0.0
2018-Aug-06 01:29N 39°53' W 075°13'0 0.0
2018-Aug-06 00:59N 39°53' W 075°13'0 0.0
2018-Aug-06 00:26N 39°53' W 075°13'0 0.0
2018-Aug-05 23:59N 39°53' W 075°13'0 0.0
2018-Aug-05 23:29N 39°53' W 075°13'0 0.0
2018-Aug-05 22:59N 39°53' W 075°13'0 0.0
2018-Aug-05 22:26N 39°53' W 075°13'0 0.0
2018-Aug-05 21:59N 39°53' W 075°13'0 0.0
2018-Aug-05 21:29N 39°53' W 075°13'0 0.0
2018-Aug-05 20:59N 39°53' W 075°13'0 0.0
2018-Aug-05 20:29N 39°53' W 075°13'0 0.0
2018-Aug-05 19:59N 39°53' W 075°13'0 0.0
2018-Aug-05 19:29N 39°53' W 075°13'0 0.0
2018-Aug-05 18:59N 39°53' W 075°13'0 0.0
2018-Aug-05 18:29N 39°53' W 075°13'0 0.0
2018-Aug-05 17:59N 39°53' W 075°13'0 0.0
2018-Aug-05 17:29N 39°53' W 075°13'0 0.0
2018-Aug-05 16:59N 39°53' W 075°13'0 0.0
2018-Aug-05 16:29N 39°53' W 075°13'0 0.0
2018-Aug-05 15:59N 39°53' W 075°13'0 0.0
2018-Aug-05 15:26N 39°53' W 075°13'0 0.0
2018-Aug-05 14:59N 39°53' W 075°13'0 0.0
2018-Aug-05 14:29N 39°53' W 075°13'0 0.0
2018-Aug-05 13:29N 39°53' W 075°13'0 0.0
2018-Aug-05 12:59N 39°53' W 075°13'0 0.0
2018-Aug-05 12:29N 39°53' W 075°13'0 0.0
2018-Aug-05 11:59N 39°53' W 075°13'0 0.0
2018-Aug-05 11:29N 39°53' W 075°13'0 0.0
2018-Aug-05 10:59N 39°53' W 075°13'0 0.0
2018-Aug-05 10:29N 39°53' W 075°13'0 0.0
2018-Aug-05 09:59N 39°53' W 075°13'0 0.0
2018-Aug-05 09:29N 39°53' W 075°13'0 0.0
2018-Aug-05 08:59N 39°53' W 075°13'0 0.0
2018-Aug-05 08:29N 39°53' W 075°13'0 0.0
2018-Aug-05 07:59N 39°53' W 075°13'0 0.0
2018-Aug-05 07:29N 39°53' W 075°13'0 0.0
2018-Aug-05 06:59N 39°53' W 075°13'0 0.0
2018-Aug-05 06:29N 39°53' W 075°13'0 0.0
2018-Aug-05 05:59N 39°53' W 075°13'0 0.0
2018-Aug-05 05:29N 39°53' W 075°13'0 0.0
2018-Aug-05 04:59N 39°53' W 075°13'0 0.0
2018-Aug-05 04:29N 39°53' W 075°13'0 0.0
2018-Aug-05 03:59N 39°53' W 075°13'0 0.0
2018-Aug-05 03:29N 39°53' W 075°13'0 0.0
2018-Aug-05 02:59N 39°53' W 075°13'0 0.0
2018-Aug-05 02:29N 39°53' W 075°13'0 0.0
2018-Aug-05 01:59N 39°53' W 075°13'0 0.0
2018-Aug-05 01:29N 39°53' W 075°13'0 0.0
2018-Aug-05 00:59N 39°53' W 075°13'0 0.0
2018-Aug-05 00:29N 39°53' W 075°13'0 0.0
2018-Aug-04 23:59N 39°53' W 075°13'0 0.0
2018-Aug-04 23:29N 39°53' W 075°13'0 0.0
2018-Aug-04 22:59N 39°53' W 075°13'0 0.0
2018-Aug-04 22:29N 39°53' W 075°13'0 0.0
2018-Aug-04 21:59N 39°53' W 075°13'0 0.0
2018-Aug-04 21:29N 39°53' W 075°13'0 0.0
2018-Aug-04 20:59N 39°53' W 075°13'0 0.0
2018-Aug-04 20:29N 39°53' W 075°13'0 0.0
2018-Aug-04 19:59N 39°53' W 075°13'0 0.0
2018-Aug-04 19:29N 39°53' W 075°13'0 0.0
2018-Aug-04 18:59N 39°53' W 075°13'0 0.0
2018-Aug-04 18:29N 39°53' W 075°13'  
Track history (hours):
 
Tides and Currents Weather Stations Pressure Air Temp Water Temp Dewpoint Dewpoint Depression Visibility Wind Speed Wind Dir Waves Ship Positions

Cherneski

Last reported at 2018-Aug-14 18:17 UTC. Time now 2018-Aug-14 23:45 UTC.
Position N 39°15' W 075°00'.

Length 16 m.

Type: Dredging. MMSI: 366999302.

Date/timePositionNaut miles runAvg speedWind from/ knotsBaromVisibWave heightAir tempDewpointWater temp
2018-Aug-14 18:17N 39°15' W 075°00'3 5.5
2018-Aug-14 17:50N 39°13' W 075°02'718.1
2018-Aug-14 17:27N 39°07' W 075°06'5 1.8
2018-Aug-14 14:52N 39°06' W 075°11'2 4.3
2018-Aug-14 14:24N 39°06' W 075°09'716.0
2018-Aug-14 13:58N 39°11' W 075°02'  
2018-Aug-10 17:50N 39°13' W 075°02'2 6.2
2018-Aug-10 17:27N 39°10' W 075°03'919.8
2018-Aug-10 17:01N 39°07' W 075°13'1224.3
2018-Aug-10 16:31N 39°17' W 075°22'1122.6
2018-Aug-10 16:01N 39°26' W 075°32'816.2
2018-Aug-10 15:30N 39°33' W 075°36'5 8.4
2018-Aug-10 14:58N 39°33' W 075°42'0 0.0
2018-Aug-10 14:28N 39°33' W 075°42'0 0.0
2018-Aug-10 13:58N 39°33' W 075°42'0 0.0
2018-Aug-10 13:25N 39°33' W 075°42'0 0.0
2018-Aug-10 12:58N 39°33' W 075°42'0 0.0
2018-Aug-10 12:28N 39°33' W 075°42'0 0.0
2018-Aug-10 11:58N 39°33' W 075°42'0 0.0
2018-Aug-10 11:28N 39°33' W 075°42'0 0.0
2018-Aug-10 11:00N 39°33' W 075°42'0 0.0
2018-Aug-10 10:28N 39°33' W 075°42'0 0.0
2018-Aug-10 09:58N 39°33' W 075°42'0 0.0
2018-Aug-10 09:30N 39°33' W 075°42'0 0.0
2018-Aug-10 08:57N 39°33' W 075°42'0 0.0
2018-Aug-10 08:27N 39°33' W 075°42'0 0.0
2018-Aug-10 08:00N 39°33' W 075°42'0 0.0
2018-Aug-10 07:28N 39°33' W 075°42'0 0.0
2018-Aug-10 07:00N 39°33' W 075°42'0 0.0
2018-Aug-10 06:25N 39°33' W 075°42'0 0.0
2018-Aug-10 05:58N 39°33' W 075°42'0 0.0
2018-Aug-10 05:28N 39°33' W 075°42'0 0.0
2018-Aug-10 04:57N 39°33' W 075°42'0 0.0
2018-Aug-10 04:27N 39°33' W 075°42'0 0.0
2018-Aug-10 03:58N 39°33' W 075°42'0 0.0
2018-Aug-10 03:28N 39°33' W 075°42'0 0.0
2018-Aug-10 02:55N 39°33' W 075°42'0 0.0
2018-Aug-10 02:28N 39°33' W 075°42'0 0.0
2018-Aug-10 01:58N 39°33' W 075°42'0 0.0
2018-Aug-10 01:28N 39°33' W 075°42'0 0.0
2018-Aug-10 00:58N 39°33' W 075°42'0 0.0
2018-Aug-10 00:28N 39°33' W 075°42'0 0.0
2018-Aug-09 23:58N 39°33' W 075°42'0 0.0
2018-Aug-09 23:28N 39°33' W 075°42'0 0.0
2018-Aug-09 22:58N 39°33' W 075°42'0 0.0
2018-Aug-09 22:28N 39°33' W 075°42'0 0.0
2018-Aug-09 21:58N 39°33' W 075°42'0 0.0
2018-Aug-09 21:28N 39°33' W 075°42'0 0.0
2018-Aug-09 20:55N 39°33' W 075°42'0 0.0
2018-Aug-09 20:28N 39°33' W 075°42'0 0.0
2018-Aug-09 19:58N 39°33' W 075°42'0 0.0
2018-Aug-09 19:28N 39°33' W 075°42'0 0.0
2018-Aug-09 18:55N 39°33' W 075°42'0 0.0
2018-Aug-09 18:28N 39°33' W 075°42'0 0.0
2018-Aug-09 17:58N 39°33' W 075°42'0 0.2
2018-Aug-09 17:29N 39°33' W 075°42'0 0.0
2018-Aug-09 17:00N 39°33' W 075°42'4 7.4
2018-Aug-09 16:31N 39°33' W 075°37'815.9
2018-Aug-09 16:00N 39°40' W 075°32'0 0.1
2018-Aug-09 15:30N 39°40' W 075°32'0 0.4
2018-Aug-09 15:00N 39°40' W 075°32'0 0.3
2018-Aug-09 14:30N 39°40' W 075°32'0 1.0
2018-Aug-09 14:00N 39°40' W 075°32'0 0.2
2018-Aug-09 13:30N 39°39' W 075°33'0 0.9
2018-Aug-09 13:00N 39°40' W 075°32'611.9
2018-Aug-09 12:30N 39°34' W 075°33'714.2
2018-Aug-09 12:00N 39°33' W 075°42'0 0.0
2018-Aug-09 11:29N 39°33' W 075°42'0 0.0
2018-Aug-09 10:59N 39°33' W 075°42'0 0.0
2018-Aug-09 10:29N 39°33' W 075°42'0 0.0
2018-Aug-09 09:59N 39°33' W 075°42'0 0.0
2018-Aug-09 09:29N 39°33' W 075°42'0 0.0
2018-Aug-09 08:59N 39°33' W 075°42'0 0.0
2018-Aug-09 08:29N 39°33' W 075°42'0 0.0
2018-Aug-09 07:59N 39°33' W 075°42'0 0.0
2018-Aug-09 07:29N 39°33' W 075°42'0 0.0
2018-Aug-09 06:59N 39°33' W 075°42'0 0.0
2018-Aug-09 06:23N 39°33' W 075°42'0 0.0
2018-Aug-09 05:56N 39°33' W 075°42'0 0.0
2018-Aug-09 05:29N 39°33' W 075°42'0 0.0
2018-Aug-09 04:59N 39°33' W 075°42'0 0.0
2018-Aug-09 04:29N 39°33' W 075°42'0 0.0
2018-Aug-09 03:59N 39°33' W 075°42'0 0.0
2018-Aug-09 03:29N 39°33' W 075°42'0 0.0
2018-Aug-09 02:59N 39°33' W 075°42'0 0.0
2018-Aug-09 02:26N 39°33' W 075°42'0 0.0
2018-Aug-09 01:59N 39°33' W 075°42'0 0.0
2018-Aug-09 01:29N 39°33' W 075°42'0 0.0
2018-Aug-09 00:59N 39°33' W 075°42'0 0.0
2018-Aug-09 00:29N 39°33' W 075°42'0 0.0
2018-Aug-08 23:59N 39°33' W 075°42'0 0.0
2018-Aug-08 23:29N 39°33' W 075°42'0 0.0
2018-Aug-08 22:59N 39°33' W 075°42'0 0.0
2018-Aug-08 22:29N 39°33' W 075°42'0 0.0
2018-Aug-08 21:59N 39°33' W 075°42'0 0.0
2018-Aug-08 21:29N 39°33' W 075°42'0 0.0
2018-Aug-08 20:59N 39°33' W 075°42'0 0.0
2018-Aug-08 20:29N 39°33' W 075°42'0 0.0
2018-Aug-08 19:59N 39°33' W 075°42'0 0.0
2018-Aug-08 19:29N 39°33' W 075°42'0 0.0
2018-Aug-08 18:59N 39°33' W 075°42'0 0.0
2018-Aug-08 18:29N 39°33' W 075°42'0 0.0
2018-Aug-08 17:59N 39°33' W 075°42'0 0.0
2018-Aug-08 17:29N 39°33' W 075°42'0 0.0
2018-Aug-08 16:59N 39°33' W 075°42'0 0.0
2018-Aug-08 16:29N 39°33' W 075°42'4 9.3
2018-Aug-08 16:01N 39°33' W 075°37'612.5
2018-Aug-08 15:30N 39°39' W 075°33'0 0.7
2018-Aug-08 15:00N 39°39' W 075°33'1 1.4
2018-Aug-08 14:30N 39°39' W 075°33'1 1.2
2018-Aug-08 14:00N 39°39' W 075°33'0 0.9
2018-Aug-08 13:30N 39°39' W 075°33'713.2
2018-Aug-08 13:00N 39°33' W 075°38'3 5.7
2018-Aug-08 12:26N 39°33' W 075°42'0 0.2
2018-Aug-08 11:58N 39°33' W 075°42'0 0.0
2018-Aug-08 11:28N 39°33' W 075°42'0 0.0
2018-Aug-08 10:58N 39°33' W 075°42'0 0.0
2018-Aug-08 10:28N 39°33' W 075°42'0 0.0
2018-Aug-08 09:55N 39°33' W 075°42'0 0.0
2018-Aug-08 09:28N 39°33' W 075°42'0 0.0
2018-Aug-08 08:58N 39°33' W 075°42'0 0.0
2018-Aug-08 08:28N 39°33' W 075°42'0 0.0
2018-Aug-08 07:58N 39°33' W 075°42'0 0.0
2018-Aug-08 07:28N 39°33' W 075°42'0 0.0
2018-Aug-08 06:55N 39°33' W 075°42'0 0.0
2018-Aug-08 06:28N 39°33' W 075°42'0 0.0
2018-Aug-08 05:58N 39°33' W 075°42'0 0.0
2018-Aug-08 05:25N 39°33' W 075°42'0 0.0
2018-Aug-08 04:58N 39°33' W 075°42'0 0.0
2018-Aug-08 04:25N 39°33' W 075°42'0 0.0
2018-Aug-08 03:58N 39°33' W 075°42'0 0.0
2018-Aug-08 03:28N 39°33' W 075°42'0 0.0
2018-Aug-08 02:58N 39°33' W 075°42'0 0.0
2018-Aug-08 02:28N 39°33' W 075°42'0 0.0
2018-Aug-08 01:58N 39°33' W 075°42'0 0.0
2018-Aug-08 01:25N 39°33' W 075°42'0 0.0
2018-Aug-08 00:58N 39°33' W 075°42'0 0.0
2018-Aug-08 00:28N 39°33' W 075°42'0 0.0
2018-Aug-07 19:28N 39°33' W 075°42'0 0.0
2018-Aug-07 18:58N 39°33' W 075°42'0 0.0
2018-Aug-07 18:28N 39°33' W 075°42'0 0.0
2018-Aug-07 17:58N 39°33' W 075°42'0 0.0
2018-Aug-07 17:25N 39°33' W 075°42'3 7.6
2018-Aug-07 17:00N 39°33' W 075°38'918.2
2018-Aug-07 16:31N 39°41' W 075°32'1122.8
2018-Aug-07 16:00N 39°50' W 075°22'1 2.3
2018-Aug-07 15:30N 39°51' W 075°21'0 0.0
2018-Aug-07 15:00N 39°51' W 075°21'0 0.2
2018-Aug-07 14:30N 39°51' W 075°21'510.4
2018-Aug-07 14:00N 39°48' W 075°26'1019.5
2018-Aug-07 13:30N 39°39' W 075°33'714.4
2018-Aug-07 13:01N 39°33' W 075°38'3 6.2
2018-Aug-07 12:31N 39°33' W 075°42'0 0.0
2018-Aug-07 12:00N 39°33' W 075°42'0 0.0
2018-Aug-07 11:14N 39°33' W 075°42'0 0.0
2018-Aug-07 10:54N 39°33' W 075°42'0 0.0
2018-Aug-07 10:28N 39°33' W 075°42'0 0.0
2018-Aug-07 10:00N 39°33' W 075°42'0 0.0
2018-Aug-07 09:23N 39°33' W 075°42'0 0.0
2018-Aug-07 08:55N 39°33' W 075°42'0 0.0
2018-Aug-07 08:27N 39°33' W 075°42'0 0.0
2018-Aug-07 08:00N 39°33' W 075°42'0 0.0
2018-Aug-07 07:30N 39°33' W 075°42'0 0.0
2018-Aug-07 07:01N 39°33' W 075°42'0 0.0
2018-Aug-07 06:30N 39°33' W 075°42'0 0.0
2018-Aug-07 06:00N 39°33' W 075°42'0 0.0
2018-Aug-07 05:30N 39°33' W 075°42'0 0.0
2018-Aug-07 05:00N 39°33' W 075°42'0 0.0
2018-Aug-07 04:30N 39°33' W 075°42'0 0.0
2018-Aug-07 04:00N 39°33' W 075°42'0 0.0
2018-Aug-07 03:30N 39°33' W 075°42'0 0.0
2018-Aug-07 03:00N 39°33' W 075°42'0 0.0
2018-Aug-07 02:30N 39°33' W 075°42'0 0.0
2018-Aug-07 02:00N 39°33' W 075°42'0 0.0
2018-Aug-07 01:30N 39°33' W 075°42'0 0.0
2018-Aug-07 01:01N 39°33' W 075°42'0 0.0
2018-Aug-07 00:30N 39°33' W 075°42'0 0.0
2018-Aug-07 00:00N 39°33' W 075°42'0 0.0
2018-Aug-06 23:29N 39°33' W 075°42'0 0.0
2018-Aug-06 22:59N 39°33' W 075°42'0 0.0
2018-Aug-06 22:30N 39°33' W 075°42'0 0.0
2018-Aug-06 22:00N 39°33' W 075°42'0 0.0
2018-Aug-06 21:30N 39°33' W 075°42'0 0.0
2018-Aug-06 21:00N 39°33' W 075°42'0 0.0
2018-Aug-06 20:30N 39°33' W 075°42'0 0.0
2018-Aug-06 20:00N 39°33' W 075°42'0 0.0
2018-Aug-06 19:30N 39°33' W 075°42'0 0.0
2018-Aug-06 19:01N 39°33' W 075°42'0 0.0
2018-Aug-06 18:31N 39°33' W 075°42'0 0.0
2018-Aug-06 18:00N 39°33' W 075°42'0 0.0
2018-Aug-06 17:31N 39°33' W 075°42'0 0.0
2018-Aug-06 17:00N 39°33' W 075°42'0 0.0
2018-Aug-06 16:30N 39°33' W 075°42'0 0.7
2018-Aug-06 16:00N 39°33' W 075°43'714.4
2018-Aug-06 15:30N 39°34' W 075°34'0 0.3
2018-Aug-06 15:00N 39°34' W 075°34'612.0
2018-Aug-06 14:31N 39°40' W 075°32'1121.6
2018-Aug-06 14:00N 39°49' W 075°24'611.4
2018-Aug-06 13:30N 39°51' W 075°17'4 7.9
2018-Aug-06 13:00N 39°53' W 075°13'0 0.0
2018-Aug-06 12:29N 39°53' W 075°13'0 0.0
2018-Aug-06 11:59N 39°53' W 075°13'0 0.0
2018-Aug-06 11:29N 39°53' W 075°13'0 0.0
2018-Aug-06 10:59N 39°53' W 075°13'0 0.0
2018-Aug-06 10:29N 39°53' W 075°13'0 0.0
2018-Aug-06 09:59N 39°53' W 075°13'0 0.0
2018-Aug-06 09:29N 39°53' W 075°13'0 0.0
2018-Aug-06 08:59N 39°53' W 075°13'0 0.0
2018-Aug-06 08:29N 39°53' W 075°13'0 0.0
2018-Aug-06 07:59N 39°53' W 075°13'0 0.0
2018-Aug-06 07:29N 39°53' W 075°13'0 0.0
2018-Aug-06 06:59N 39°53' W 075°13'0 0.0
2018-Aug-06 06:29N 39°53' W 075°13'0 0.0
2018-Aug-06 05:59N 39°53' W 075°13'0 0.0
2018-Aug-06 05:29N 39°53' W 075°13'0 0.0
2018-Aug-06 04:59N 39°53' W 075°13'0 0.0
2018-Aug-06 04:29N 39°53' W 075°13'0 0.0
2018-Aug-06 03:59N 39°53' W 075°13'0 0.0
2018-Aug-06 03:29N 39°53' W 075°13'0 0.0
2018-Aug-06 02:56N 39°53' W 075°13'0 0.0
2018-Aug-06 02:26N 39°53' W 075°13'0 0.0
2018-Aug-06 01:59N 39°53' W 075°13'0 0.0
2018-Aug-06 01:29N 39°53' W 075°13'0 0.0
2018-Aug-06 00:59N 39°53' W 075°13'0 0.0
2018-Aug-06 00:26N 39°53' W 075°13'0 0.0
2018-Aug-05 23:59N 39°53' W 075°13'0 0.0
2018-Aug-05 23:29N 39°53' W 075°13'0 0.0
2018-Aug-05 22:59N 39°53' W 075°13'0 0.0
2018-Aug-05 22:26N 39°53' W 075°13'0 0.0
2018-Aug-05 21:59N 39°53' W 075°13'0 0.0
2018-Aug-05 21:29N 39°53' W 075°13'0 0.0
2018-Aug-05 20:59N 39°53' W 075°13'0 0.0
2018-Aug-05 20:29N 39°53' W 075°13'0 0.0
2018-Aug-05 19:59N 39°53' W 075°13'0 0.0
2018-Aug-05 19:29N 39°53' W 075°13'0 0.0
2018-Aug-05 18:59N 39°53' W 075°13'0 0.0
2018-Aug-05 18:29N 39°53' W 075°13'0 0.0
2018-Aug-05 17:59N 39°53' W 075°13'0 0.0
2018-Aug-05 17:29N 39°53' W 075°13'0 0.0
2018-Aug-05 16:59N 39°53' W 075°13'0 0.0
2018-Aug-05 16:29N 39°53' W 075°13'0 0.0
2018-Aug-05 15:59N 39°53' W 075°13'0 0.0
2018-Aug-05 15:26N 39°53' W 075°13'0 0.0
2018-Aug-05 14:59N 39°53' W 075°13'0 0.0
2018-Aug-05 14:29N 39°53' W 075°13'0 0.0
2018-Aug-05 13:29N 39°53' W 075°13'0 0.0
2018-Aug-05 12:59N 39°53' W 075°13'0 0.0
2018-Aug-05 12:29N 39°53' W 075°13'0 0.0
2018-Aug-05 11:59N 39°53' W 075°13'0 0.0
2018-Aug-05 11:29N 39°53' W 075°13'0 0.0
2018-Aug-05 10:59N 39°53' W 075°13'0 0.0
2018-Aug-05 10:29N 39°53' W 075°13'0 0.0
2018-Aug-05 09:59N 39°53' W 075°13'0 0.0
2018-Aug-05 09:29N 39°53' W 075°13'0 0.0
2018-Aug-05 08:59N 39°53' W 075°13'0 0.0
2018-Aug-05 08:29N 39°53' W 075°13'0 0.0
2018-Aug-05 07:59N 39°53' W 075°13'0 0.0
2018-Aug-05 07:29N 39°53' W 075°13'0 0.0
2018-Aug-05 06:59N 39°53' W 075°13'0 0.0
2018-Aug-05 06:29N 39°53' W 075°13'0 0.0
2018-Aug-05 05:59N 39°53' W 075°13'0 0.0
2018-Aug-05 05:29N 39°53' W 075°13'0 0.0
2018-Aug-05 04:59N 39°53' W 075°13'0 0.0
2018-Aug-05 04:29N 39°53' W 075°13'0 0.0
2018-Aug-05 03:59N 39°53' W 075°13'0 0.0
2018-Aug-05 03:29N 39°53' W 075°13'0 0.0
2018-Aug-05 02:59N 39°53' W 075°13'0 0.0
2018-Aug-05 02:29N 39°53' W 075°13'0 0.0
2018-Aug-05 01:59N 39°53' W 075°13'0 0.0
2018-Aug-05 01:29N 39°53' W 075°13'0 0.0
2018-Aug-05 00:59N 39°53' W 075°13'0 0.0
2018-Aug-05 00:29N 39°53' W 075°13'0 0.0
2018-Aug-04 23:59N 39°53' W 075°13'0 0.0
2018-Aug-04 23:29N 39°53' W 075°13'0 0.0
2018-Aug-04 22:59N 39°53' W 075°13'0 0.0
2018-Aug-04 22:29N 39°53' W 075°13'0 0.0
2018-Aug-04 21:59N 39°53' W 075°13'0 0.0
2018-Aug-04 21:29N 39°53' W 075°13'0 0.0
2018-Aug-04 20:59N 39°53' W 075°13'0 0.0
2018-Aug-04 20:29N 39°53' W 075°13'0 0.0
2018-Aug-04 19:59N 39°53' W 075°13'0 0.0
2018-Aug-04 19:29N 39°53' W 075°13'0 0.0
2018-Aug-04 18:59N 39°53' W 075°13'0 0.0
2018-Aug-04 18:29N 39°53' W 075°13'  

Dump ship's entire track history